Time;durP1;ratioP1;P1;durP2;ratioP2;P2;SDS_P1;SDS_P2;PMS_P1;PMS_P2;Temp;Humidity;BMP_temperature;BMP_pressure;BME280_temperature;BME280_humidity;BME280_pressure;Samples;Min_cycle;Max_cycle;Signal;HPM_P1;HPM_P2
2022/08/10 00:01:49;;;;;;;6.03;3.92;;;;;;;12.93;100.00;102109.97;4877191;29;20052;-77
2022/08/10 00:04:21;;;;;;;4.55;3.42;;;;;;;12.92;100.00;102108.19;4861974;29;20060;-78
2022/08/10 00:06:50;;;;;;;5.47;3.70;;;;;;;12.88;100.00;102107.34;4865909;29;20132;-77
2022/08/10 00:09:17;;;;;;;4.72;3.35;;;;;;;12.83;100.00;102097.66;4838650;29;20464;-78
2022/08/10 00:11:43;;;;;;;6.30;4.45;;;;;;;12.78;100.00;102108.31;4862121;29;20765;-77
2022/08/10 00:14:10;;;;;;;5.45;3.95;;;;;;;12.71;100.00;102109.25;4939730;23;20055;-79
2022/08/10 00:16:37;;;;;;;5.53;4.10;;;;;;;12.65;100.00;102098.66;4884905;29;20048;-79
2022/08/10 00:19:06;;;;;;;6.25;3.78;;;;;;;12.59;100.00;102098.69;4861145;29;20051;-79
2022/08/10 00:21:35;;;;;;;4.95;3.40;;;;;;;12.55;100.00;102096.97;4871578;29;20040;-79
2022/08/10 00:24:02;;;;;;;5.28;4.32;;;;;;;12.54;100.00;102106.69;4860730;29;20071;-79
2022/08/10 00:26:29;;;;;;;4.95;3.60;;;;;;;12.52;100.00;102099.59;4851355;29;20048;-79
2022/08/10 00:29:16;;;;;;;5.13;3.72;;;;;;;12.46;100.00;102089.06;4884904;29;20055;-79
2022/08/10 00:31:43;;;;;;;5.05;3.80;;;;;;;12.44;100.00;102088.16;4852297;29;20041;-78
2022/08/10 00:34:26;;;;;;;5.70;3.92;;;;;;;12.38;100.00;102089.97;4882208;29;20537;-79
2022/08/10 00:36:52;;;;;;;7.85;4.47;;;;;;;12.38;100.00;102089.97;4862099;29;20045;-78
2022/08/10 00:39:19;;;;;;;5.22;4.50;;;;;;;12.35;100.00;102089.97;4860314;29;20483;-78
2022/08/10 00:41:47;;;;;;;5.72;4.05;;;;;;;12.29;100.00;102087.38;4873246;29;20419;-79
2022/08/10 00:44:34;;;;;;;6.80;4.15;;;;;;;12.24;100.00;102078.56;4857356;29;20052;-78
2022/08/10 00:47:01;;;;;;;5.45;4.22;;;;;;;12.21;100.00;102078.59;4888336;29;20049;-78
2022/08/10 00:49:27;;;;;;;6.82;4.28;;;;;;;12.21;100.00;102078.59;4844844;29;20052;-78
2022/08/10 00:51:54;;;;;;;5.25;3.97;;;;;;;12.16;100.00;102084.78;4884822;29;20043;-78
2022/08/10 00:54:21;;;;;;;6.43;3.80;;;;;;;12.09;100.00;102081.25;4874256;29;20041;-77
2022/08/10 00:56:51;;;;;;;3.97;3.45;;;;;;;12.03;100.00;102083.97;4863712;29;20787;-78
2022/08/10 00:59:37;;;;;;;4.78;3.97;;;;;;;11.99;100.00;102082.19;4882462;29;20041;-79
2022/08/10 01:02:24;;;;;;;5.13;4.10;;;;;;;11.97;100.00;102084.84;4863770;29;20100;-79
2022/08/10 01:04:51;;;;;;;5.93;4.30;;;;;;;11.93;100.00;102082.22;4867563;29;20036;-78
2022/08/10 01:07:43;;;;;;;4.80;4.03;;;;;;;11.83;100.00;102082.25;4867065;29;20243;-78
2022/08/10 01:10:40;;;;;;;7.45;5.10;;;;;;;11.80;100.00;102084.03;4862811;29;20099;-78
2022/08/10 01:13:13;;;;;;;5.25;4.13;;;;;;;11.75;100.00;102083.13;4890335;29;20044;-79
2022/08/10 01:16:01;;;;;;;6.30;4.70;;;;;;;11.71;100.00;102092.84;4894918;29;20040;-79
2022/08/10 01:18:52;;;;;;;7.25;4.82;;;;;;;11.68;100.00;102087.53;4878826;29;20411;-78
2022/08/10 01:21:28;;;;;;;6.13;3.95;;;;;;;11.60;100.00;102085.78;4888514;29;20044;-79
2022/08/10 01:24:13;;;;;;;7.07;5.05;;;;;;;11.55;100.00;102091.09;4891749;29;20044;-79
2022/08/10 01:27:14;;;;;;;5.40;4.10;;;;;;;11.50;100.00;102087.56;4877525;29;20047;-78
2022/08/10 01:29:49;;;;;;;5.63;4.57;;;;;;;11.48;100.00;102078.75;4884282;29;20410;-78
2022/08/10 01:32:21;;;;;;;8.57;4.43;;;;;;;11.44;100.00;102090.25;4881355;29;20055;-78
2022/08/10 01:34:50;;;;;;;5.35;4.13;;;;;;;11.40;100.00;102085.84;4860155;29;20045;-79
2022/08/10 01:37:21;;;;;;;6.93;5.32;;;;;;;11.42;100.00;102089.34;4874384;29;20143;-79
2022/08/10 01:39:54;;;;;;;5.82;4.43;;;;;;;11.40;100.00;102086.72;4880343;29;20041;-80
2022/08/10 01:42:22;;;;;;;5.82;4.75;;;;;;;11.42;100.00;102084.06;4863463;29;20048;-78
2022/08/10 01:44:54;;;;;;;5.57;4.47;;;;;;;11.37;100.00;102075.25;4863263;29;20044;-78
2022/08/10 01:50:31;;;;;;;7.03;4.88;;;;;;;11.28;100.00;102077.03;4865954;29;20044;-78
2022/08/10 01:53:08;;;;;;;6.63;4.95;;;;;;;11.26;100.00;102075.25;4880055;29;20040;-78
2022/08/10 01:55:35;;;;;;;5.82;4.55;;;;;;;11.25;100.00;102073.50;4847325;29;20041;-79
2022/08/10 01:58:04;;;;;;;6.57;4.03;;;;;;;11.25;100.00;102070.84;4881416;29;20037;-80
2022/08/10 02:00:32;;;;;;;5.10;4.35;;;;;;;11.22;100.00;102071.75;4890726;29;20045;-80
2022/08/10 02:03:00;;;;;;;6.72;4.50;;;;;;;11.21;100.00;102066.44;4862786;29;20572;-79
2022/08/10 02:05:28;;;;;;;7.00;4.70;;;;;;;11.16;100.00;102069.09;4869022;29;20056;-80
2022/08/10 02:07:56;;;;;;;7.32;5.25;;;;;;;11.16;100.00;102068.22;4847526;29;20387;-79
2022/08/10 02:10:23;;;;;;;6.78;4.82;;;;;;;11.21;100.00;102069.97;4879334;29;20052;-79
2022/08/10 02:12:55;;;;;;;6.55;4.75;;;;;;;11.18;100.00;102077.94;4887577;29;20041;-80
2022/08/10 02:15:23;;;;;;;6.40;4.38;;;;;;;11.15;100.00;102071.75;4862191;29;20051;-79
2022/08/10 02:17:59;;;;;;;5.30;4.63;;;;;;;11.09;100.00;102072.59;4896620;29;20053;-80
2022/08/10 02:20:32;;;;;;;6.53;4.57;;;;;;;11.09;100.00;102075.25;4848807;29;20573;-79
2022/08/10 02:23:04;;;;;;;6.80;4.90;;;;;;;11.08;100.00;102070.84;4881452;29;20056;-79
2022/08/10 02:25:32;;;;;;;6.32;4.60;;;;;;;11.09;100.00;102061.16;4852662;29;20103;-79
2022/08/10 02:28:11;;;;;;;8.90;5.10;;;;;;;11.01;100.00;102066.44;4900047;29;20041;-80
2022/08/10 02:30:54;;;;;;;5.70;4.32;;;;;;;10.96;100.00;102068.22;4897515;29;20323;-80
2022/08/10 02:33:25;;;;;;;6.22;4.65;;;;;;;10.96;100.00;102062.94;4878294;29;20082;-79
2022/08/10 02:35:53;;;;;;;6.45;4.28;;;;;;;10.92;100.00;102056.75;4895548;29;20486;-79
2022/08/10 02:38:31;;;;;;;6.03;4.95;;;;;;;10.90;100.00;102063.78;4897424;29;20075;-79
2022/08/10 02:41:19;;;;;;;6.03;4.50;;;;;;;10.86;100.00;102053.25;4896312;29;20451;-79
2022/08/10 02:44:12;;;;;;;6.97;4.95;;;;;;;10.84;100.00;102068.19;4879604;29;20044;-78
2022/08/10 02:47:05;;;;;;;7.18;5.00;;;;;;;10.82;100.00;102062.03;4883593;29;20041;-80
2022/08/10 02:49:37;;;;;;;5.72;4.78;;;;;;;10.80;100.00;102058.50;4862238;29;20044;-79
2022/08/10 02:52:08;;;;;;;6.80;5.18;;;;;;;10.78;100.00;102063.81;4880280;29;20052;-79
2022/08/10 02:54:38;;;;;;;6.00;4.47;;;;;;;10.77;100.00;102067.34;4877653;29;20566;-80
2022/08/10 02:57:24;;;;;;;7.57;4.82;;;;;;;10.76;100.00;102060.25;4875767;29;20041;-79
2022/08/10 02:59:53;;;;;;;6.97;4.85;;;;;;;10.74;100.00;102063.78;4897492;29;20059;-79
2022/08/10 03:02:28;;;;;;;7.45;5.07;;;;;;;10.71;100.00;102062.03;4880144;29;20048;-80
2022/08/10 03:04:59;;;;;;;5.97;4.95;;;;;;;10.68;100.00;102065.56;4878542;29;20047;-78
2022/08/10 03:07:30;;;;;;;8.63;5.03;;;;;;;10.66;100.00;102062.00;4895563;29;20049;-79
2022/08/10 03:10:16;;;;;;;7.28;4.88;;;;;;;10.64;100.00;102071.69;4880841;29;20040;-79
2022/08/10 03:12:45;;;;;;;6.32;4.75;;;;;;;10.64;100.00;102068.19;4849204;29;20045;-79
2022/08/10 03:15:13;;;;;;;5.43;4.30;;;;;;;10.63;100.00;102064.66;4881129;29;20051;-79
2022/08/10 03:17:43;;;;;;;6.97;5.00;;;;;;;10.62;100.00;102056.72;4857794;29;20160;-80
2022/08/10 03:20:25;;;;;;;7.70;5.10;;;;;;;10.59;100.00;102076.06;4879280;29;20533;-79
2022/08/10 03:23:08;;;;;;;6.47;4.75;;;;;;;10.57;100.00;102072.56;4849193;29;20139;-80
2022/08/10 03:25:35;;;;;;;7.25;4.78;;;;;;;10.57;100.00;102069.91;4862379;29;20412;-78
2022/08/10 03:28:02;;;;;;;6.00;4.72;;;;;;;10.55;100.00;102071.69;4881915;29;20040;-80
2022/08/10 03:30:30;;;;;;;6.47;4.47;;;;;;;10.57;100.00;102079.59;4875528;29;20188;-80
2022/08/10 03:33:02;;;;;;;5.40;4.18;;;;;;;10.50;100.00;102073.41;4871400;29;20135;-80
2022/08/10 03:35:28;;;;;;;8.82;5.68;;;;;;;10.51;100.00;102079.59;4857016;29;20477;-79
2022/08/10 03:37:55;;;;;;;5.90;4.63;;;;;;;10.47;100.00;102076.06;4883722;29;20036;-79
2022/08/10 03:40:27;;;;;;;8.00;4.85;;;;;;;10.47;100.00;102083.13;4844961;29;20097;-78
2022/08/10 03:43:14;;;;;;;6.85;4.68;;;;;;;10.46;100.00;102082.22;4889643;29;20305;-77
2022/08/10 03:45:42;;;;;;;6.72;5.53;;;;;;;10.44;100.00;102084.00;4885585;29;20037;-78
2022/08/10 03:48:22;;;;;;;9.00;5.43;;;;;;;10.44;100.00;102084.00;4891234;29;20045;-78
2022/08/10 03:50:50;;;;;;;6.95;5.45;;;;;;;10.46;100.00;102086.63;4843012;29;20053;-79
2022/08/10 03:53:19;;;;;;;7.22;4.85;;;;;;;10.48;100.00;102087.50;4875047;29;20057;-80
2022/08/10 03:56:06;;;;;;;6.57;5.32;;;;;;;10.50;100.00;102088.41;4848454;29;20053;-79
2022/08/10 03:58:53;;;;;;;7.75;5.45;;;;;;;10.45;100.00;102085.75;4877382;29;20044;-80
2022/08/10 04:01:19;;;;;;;8.55;5.88;;;;;;;10.45;100.00;102090.16;4853253;29;20056;-79
2022/08/10 04:04:06;;;;;;;7.78;5.65;;;;;;;10.42;100.00;102081.34;4857549;29;20041;-78
2022/08/10 04:06:40;;;;;;;8.82;5.70;;;;;;;10.45;100.00;102080.47;4890965;29;20044;-79
2022/08/10 04:09:06;;;;;;;8.68;5.38;;;;;;;10.47;100.00;102075.19;4863402;29;20387;-79
2022/08/10 04:11:33;;;;;;;7.97;5.50;;;;;;;10.47;100.00;102083.13;4870464;29;20044;-79
2022/08/10 04:14:00;;;;;;;7.45;5.22;;;;;;;10.47;100.00;102077.81;4891982;29;20050;-78
2022/08/10 04:16:26;;;;;;;7.20;5.60;;;;;;;10.47;100.00;102077.81;4834449;29;20510;-79
2022/08/10 04:18:53;;;;;;;8.05;5.15;;;;;;;10.48;100.00;102084.88;4873498;29;20060;-79
2022/08/10 04:21:23;;;;;;;6.90;5.57;;;;;;;10.49;100.00;102089.28;4886337;29;20537;-78
2022/08/10 04:23:51;;;;;;;6.95;5.00;;;;;;;10.50;100.00;102094.56;4833892;29;20044;-80
2022/08/10 04:26:19;;;;;;;7.95;5.47;;;;;;;10.51;100.00;102087.50;4860039;29;20052;-80
2022/08/10 04:28:47;;;;;;;6.97;4.85;;;;;;;10.52;100.00;102098.13;4860973;29;20048;-79
2022/08/10 04:31:16;;;;;;;8.32;5.35;;;;;;;10.53;100.00;102096.34;4853561;29;20041;-79
2022/08/10 04:33:46;;;;;;;7.32;5.35;;;;;;;10.63;100.00;102103.41;4875208;29;20044;-79
2022/08/10 04:36:14;;;;;;;6.43;5.20;;;;;;;10.62;100.00;102101.66;4874738;29;20048;-79
2022/08/10 04:38:42;;;;;;;7.25;5.40;;;;;;;10.67;100.00;102102.53;4860352;29;20045;-79
2022/08/10 04:41:09;;;;;;;8.88;6.50;;;;;;;10.75;100.00;102102.53;4864134;29;20108;-79
2022/08/10 04:43:35;;;;;;;7.90;6.15;;;;;;;10.87;100.00;102106.09;4883608;29;20104;-79
2022/08/10 04:46:02;;;;;;;8.20;6.18;;;;;;;10.97;100.00;102101.72;4883499;29;20053;-79
2022/08/10 04:48:39;;;;;;;9.73;5.97;;;;;;;11.06;100.00;102106.13;4890602;29;20141;-79
2022/08/10 04:51:25;;;;;;;9.88;6.28;;;;;;;11.14;100.00;102105.25;4870455;29;20045;-79
2022/08/10 04:53:52;;;;;;;8.27;6.20;;;;;;;11.23;100.00;102113.19;4880179;29;20049;-79
2022/08/10 04:56:31;;;;;;;8.50;5.43;;;;;;;11.25;100.00;102111.41;4879417;29;20045;-79
2022/08/10 04:58:59;;;;;;;7.68;5.68;;;;;;;11.28;100.00;102108.78;4864420;29;20511;-80
2022/08/10 05:01:26;;;;;;;7.70;5.88;;;;;;;11.32;100.00;102111.41;4884452;29;20095;-79
2022/08/10 05:04:12;;;;;;;8.35;5.45;;;;;;;11.35;100.00;102101.72;4899103;29;20447;-78
2022/08/10 05:06:59;;;;;;;7.90;5.63;;;;;;;11.58;100.00;102112.25;4884194;29;20044;-79
2022/08/10 05:09:25;;;;;;;6.35;5.22;;;;;;;11.85;100.00;102108.72;4898262;29;20052;-78
2022/08/10 05:11:52;;;;;;;8.43;6.00;;;;;;;11.90;100.00;102106.06;4883761;29;20108;-79
2022/08/10 05:14:19;;;;;;;6.03;4.93;;;;;;;11.91;100.00;102110.47;4898518;29;20044;-79
2022/08/10 05:16:45;;;;;;;7.72;5.70;;;;;;;11.96;100.00;102106.06;4884070;29;20044;-78
2022/08/10 05:19:12;;;;;;;6.85;5.00;;;;;;;11.98;100.00;102104.28;4882702;29;20044;-78
2022/08/10 05:21:39;;;;;;;7.20;5.32;;;;;;;12.00;100.00;102102.50;4885795;29;20414;-79
2022/08/10 05:24:25;;;;;;;9.20;5.38;;;;;;;12.08;100.00;102112.19;4868570;29;20072;-78
2022/08/10 05:26:52;;;;;;;8.13;6.30;;;;;;;12.15;100.00;102105.09;4884021;29;20056;-79
2022/08/10 05:29:36;;;;;;;10.70;6.05;;;;;;;12.23;100.00;102113.91;4869775;29;20148;-78
2022/08/10 05:32:03;;;;;;;7.93;5.95;;;;;;;12.28;100.00;102119.19;4883771;29;20055;-78
2022/08/10 05:34:29;;;;;;;9.73;6.00;;;;;;;12.38;100.00;102112.94;4882754;29;20064;-78
2022/08/10 05:36:56;;;;;;;8.00;6.18;;;;;;;12.56;100.00;102115.50;4909914;29;20065;-78
2022/08/10 05:39:23;;;;;;;8.45;5.85;;;;;;;12.66;100.00;102109.25;4882421;29;20049;-78
2022/08/10 05:41:58;;;;;;;10.13;5.72;;;;;;;12.74;100.00;102118.94;4868907;29;20044;-78
2022/08/10 05:44:28;;;;;;;9.80;5.35;;;;;;;12.87;100.00;102113.56;4898124;29;20045;-78
2022/08/10 05:46:55;;;;;;;8.85;6.75;;;;;;;13.00;100.00;102118.75;4867779;29;20075;-78
2022/08/10 05:49:22;;;;;;;10.70;7.13;;;;;;;13.30;100.00;102117.69;4896922;29;20076;-79
2022/08/10 05:51:48;;;;;;;8.40;5.90;;;;;;;13.62;100.00;102128.00;4883552;29;20048;-79
2022/08/10 05:54:15;;;;;;;8.25;6.22;;;;;;;13.92;100.00;102125.03;4879990;29;20048;-79
2022/08/10 05:56:44;;;;;;;7.20;5.53;;;;;;;14.25;100.00;102120.22;4865326;29;20045;-79
2022/08/10 05:59:28;;;;;;;7.40;5.70;;;;;;;15.05;100.00;102126.25;4881016;29;20048;-78
2022/08/10 06:02:22;;;;;;;10.77;5.45;;;;;;;16.46;100.00;102120.97;4867727;29;20760;-79
2022/08/10 06:05:12;;;;;;;6.63;4.10;;;;;;;16.80;100.00;102103.31;4895446;29;20064;-78
2022/08/10 06:08:03;;;;;;;5.00;3.90;;;;;;;16.85;100.00;102112.09;4858132;29;20113;-79
2022/08/10 06:10:30;;;;;;;6.63;4.93;;;;;;;17.08;100.00;102116.91;4864843;29;21021;-79
2022/08/10 06:16:06;;;;;;;6.60;4.57;;;;;;;17.98;100.00;102121.69;4917175;29;20501;-80
2022/08/10 06:18:34;;;;;;;5.80;3.63;;;;;;;19.01;100.00;102116.84;4870343;29;20052;-80
2022/08/10 06:21:01;;;;;;;7.65;4.03;;;;;;;19.36;99.20;102118.34;4848944;29;20045;-80
2022/08/10 06:23:29;;;;;;;5.20;3.53;;;;;;;20.09;93.71;102114.88;4849893;29;20044;-79
2022/08/10 06:25:56;;;;;;;4.40;3.33;;;;;;;20.68;87.32;102112.66;4865429;29;20505;-79
2022/08/10 06:28:40;;;;;;;3.65;3.30;;;;;;;21.02;84.51;102116.63;4851930;29;20131;-79
2022/08/10 06:31:06;;;;;;;3.58;2.80;;;;;;;21.23;80.98;102113.06;4863794;29;20517;-79
2022/08/10 06:33:35;;;;;;;4.93;3.47;;;;;;;21.27;81.76;102113.84;4877499;29;20043;-80
2022/08/10 06:36:03;;;;;;;3.95;3.33;;;;;;;21.45;79.24;102114.91;4880474;29;20045;-79
2022/08/10 06:38:32;;;;;;;4.95;3.42;;;;;;;21.45;76.86;102115.78;4879021;29;20070;-79
2022/08/10 06:41:01;;;;;;;3.33;2.95;;;;;;;22.02;75.98;102105.19;4871382;29;20044;-79
2022/08/10 06:43:29;;;;;;;3.97;3.00;;;;;;;22.68;70.74;102111.97;4864068;29;20044;-80
2022/08/10 06:46:01;;;;;;;5.22;3.05;;;;;;;22.76;66.27;102100.81;4863859;29;20036;-80
2022/08/10 06:48:44;;;;;;;4.82;3.05;;;;;;;22.68;68.63;102109.25;4857785;29;20120;-81
2022/08/10 06:51:19;;;;;;;4.38;3.17;;;;;;;22.49;67.04;102113.78;4865003;29;20112;-80
2022/08/10 06:53:48;;;;;;;5.25;2.92;;;;;;;22.40;67.40;102101.63;4863921;29;20059;-81
2022/08/10 06:56:25;;;;;;;5.15;2.53;;;;;;;22.52;67.78;102094.78;4839657;29;20080;-80
2022/08/10 06:59:29;;;;;;;4.15;3.05;;;;;;;22.57;66.56;102098.13;4861847;29;20533;-80
2022/08/10 07:01:59;;;;;;;2.85;2.40;;;;;;;22.67;67.05;102103.97;4864366;29;20139;-80
2022/08/10 07:04:30;;;;;;;3.50;2.75;;;;;;;22.82;63.69;102094.25;4862686;29;20052;-80
2022/08/10 07:07:01;;;;;;;3.97;2.90;;;;;;;22.83;64.23;102086.09;4850176;29;20070;-80
2022/08/10 07:09:29;;;;;;;3.58;2.50;;;;;;;23.29;62.16;102084.72;4863572;29;20413;-80
2022/08/10 07:11:57;;;;;;;3.17;2.80;;;;;;;23.28;60.69;102088.34;4850013;29;20060;-80
2022/08/10 07:14:39;;;;;;;3.72;2.85;;;;;;;23.57;59.05;102086.84;4850940;29;20096;-80
2022/08/10 07:17:08;;;;;;;2.60;2.30;;;;;;;23.75;57.71;102086.84;4849256;29;20040;-80
2022/08/10 07:19:42;;;;;;;4.07;2.35;;;;;;;23.76;58.34;102089.47;4882136;29;20080;-83
2022/08/10 07:22:18;;;;;;;4.75;2.63;;;;;;;24.07;57.74;102085.13;4848341;29;20075;-82
2022/08/10 07:25:07;;;;;;;4.07;2.55;;;;;;;24.52;55.63;102097.94;4865383;29;20108;-81
2022/08/10 07:27:34;;;;;;;3.47;2.70;;;;;;;24.53;54.83;102088.00;4877498;29;20040;-81
2022/08/10 07:30:21;;;;;;;4.47;2.30;;;;;;;24.56;54.48;102094.13;4860625;29;20063;-81
2022/08/10 07:32:49;;;;;;;4.57;2.45;;;;;;;24.60;53.21;102084.88;4865608;29;20140;-81
2022/08/10 07:35:17;;;;;;;4.78;2.50;;;;;;;24.67;52.53;102096.22;4887697;29;20040;-81
2022/08/10 07:37:48;;;;;;;2.95;2.20;;;;;;;24.56;52.51;102099.53;4863150;29;20434;-81
2022/08/10 07:40:17;;;;;;;8.27;2.95;;;;;;;24.58;52.43;102094.91;4878717;29;20127;-80
2022/08/10 07:42:46;;;;;;;4.78;2.67;;;;;;;24.67;52.76;102096.22;4863272;29;20128;-82
2022/08/10 07:45:13;;;;;;;2.90;2.53;;;;;;;24.99;51.80;102094.38;4842026;29;20096;-81
2022/08/10 07:48:00;;;;;;;3.28;2.55;;;;;;;24.79;50.56;102092.78;4848311;29;20041;-81
2022/08/10 07:50:35;;;;;;;2.55;2.00;;;;;;;25.13;50.11;102101.69;4883259;29;20056;-81
2022/08/10 07:53:03;;;;;;;3.40;2.50;;;;;;;24.91;50.37;102093.94;4866348;29;20140;-80
2022/08/10 07:55:31;;;;;;;132.30;26.02;;;;;;;25.02;50.17;102094.16;4864275;29;20112;-81
2022/08/10 07:58:21;;;;;;;163.57;26.00;;;;;;;25.30;49.94;102093.44;4862765;29;20044;-81
2022/08/10 08:00:56;;;;;;;7.43;3.53;;;;;;;25.37;48.66;102088.53;4862816;29;20501;-80
2022/08/10 08:03:27;;;;;;;225.00;40.50;;;;;;;25.45;48.49;102084.41;4858738;29;20056;-80
2022/08/10 08:05:56;;;;;;;16.02;3.83;;;;;;;25.47;48.63;102084.31;4847172;29;20123;-81
2022/08/10 08:08:31;;;;;;;5.53;2.90;;;;;;;25.81;47.33;102084.03;4863698;29;20048;-81
2022/08/10 08:10:58;;;;;;;3.03;2.53;;;;;;;25.86;46.90;102086.44;4845921;29;20565;-80
2022/08/10 08:13:25;;;;;;;4.70;3.00;;;;;;;25.97;46.75;102081.22;4838794;29;20530;-81
2022/08/10 08:15:52;;;;;;;4.32;2.92;;;;;;;25.83;48.00;102083.06;4860842;29;20048;-81
2022/08/10 08:18:39;;;;;;;3.60;2.35;;;;;;;25.84;47.62;102088.38;4863575;29;20111;-80
2022/08/10 08:21:27;;;;;;;3.45;2.63;;;;;;;25.91;46.70;102078.06;4878203;29;20075;-80
2022/08/10 08:24:14;;;;;;;9.90;3.58;;;;;;;25.74;47.71;102071.84;4864254;29;20053;-81
2022/08/10 08:27:02;;;;;;;28.30;5.25;;;;;;;26.03;47.13;102072.72;4867743;29;20139;-80
2022/08/10 08:29:34;;;;;;;3.85;2.70;;;;;;;25.86;46.28;102072.91;4875922;29;20481;-80
2022/08/10 08:32:02;;;;;;;4.03;2.70;;;;;;;25.97;46.57;102077.66;4876879;29;20076;-81
2022/08/10 08:34:36;;;;;;;4.63;2.88;;;;;;;26.40;46.20;102074.94;4874100;29;20055;-80
2022/08/10 08:37:05;;;;;;;4.72;3.00;;;;;;;26.46;44.29;102077.25;4851761;29;20096;-81
2022/08/10 08:39:32;;;;;;;4.93;3.25;;;;;;;26.24;44.89;102067.78;4858367;29;20502;-81
2022/08/10 08:42:07;;;;;;;4.32;3.08;;;;;;;26.15;46.03;102076.50;4862318;29;20089;-81
2022/08/10 08:45:13;;;;;;;22.65;5.75;;;;;;;26.37;45.73;102075.97;4888475;29;20056;-82
2022/08/10 08:48:17;;;;;;;3.45;2.88;;;;;;;26.33;45.14;102075.31;4872966;29;20142;-80
2022/08/10 08:51:23;;;;;;;68.22;10.18;;;;;;;26.42;45.07;102073.91;4886457;29;20103;-81
2022/08/10 08:54:35;;;;;;;5.80;3.38;;;;;;;26.68;44.24;102061.34;4872507;29;20044;-81
2022/08/10 08:57:14;;;;;;;4.00;3.30;;;;;;;26.49;44.24;102067.13;4861773;29;20055;-80
2022/08/10 09:00:18;;;;;;;5.75;3.20;;;;;;;26.58;44.40;102077.34;4859073;29;20048;-81
2022/08/10 09:03:16;;;;;;;5.47;3.30;;;;;;;27.04;44.18;102068.88;4858190;29;20049;-81
2022/08/10 09:05:59;;;;;;;3.60;2.80;;;;;;;27.42;43.39;102068.13;4842274;29;20049;-82
2022/08/10 09:08:55;;;;;;;4.72;2.85;;;;;;;27.28;42.53;102062.78;4848381;29;20685;-81
2022/08/10 09:11:57;;;;;;;3.30;3.00;;;;;;;27.81;41.98;102058.19;4873395;29;20053;-82
2022/08/10 09:14:40;;;;;;;11.75;4.05;;;;;;;28.10;41.53;102050.66;4866546;29;20100;-81
2022/08/10 09:17:19;;;;;;;3.10;2.80;;;;;;;28.11;41.11;102041.53;4860990;29;20045;-81
2022/08/10 09:19:55;;;;;;;4.90;2.83;;;;;;;27.82;41.16;102049.91;4874941;29;20072;-81
2022/08/10 09:23:18;;;;;;;4.03;2.92;;;;;;;28.14;39.79;102053.03;4843678;29;20105;-81
2022/08/10 09:25:58;;;;;;;24.50;5.70;;;;;;;28.30;39.81;102045.53;4813158;29;20046;-81
2022/08/10 09:28:28;;;;;;;3.80;2.63;;;;;;;28.56;39.37;102040.88;4817050;29;20491;-81
2022/08/10 09:31:06;;;;;;;4.50;3.22;;;;;;;28.37;38.90;102040.53;4843478;29;20140;-80
2022/08/10 09:34:06;;;;;;;4.40;3.00;;;;;;;28.54;38.81;102039.28;4877254;29;20049;-80
2022/08/10 09:37:11;;;;;;;2.42;2.20;;;;;;;28.43;33.44;102033.78;4874777;29;20407;-80
2022/08/10 09:39:47;;;;;;;4.22;3.05;;;;;;;28.45;35.09;102031.81;4860697;29;20049;-80
2022/08/10 09:43:03;;;;;;;8.07;3.90;;;;;;;28.15;37.12;102032.16;4869212;29;20483;-81
2022/08/10 09:46:07;;;;;;;4.28;3.13;;;;;;;27.24;38.44;102029.53;4853236;29;20140;-80
2022/08/10 09:48:44;;;;;;;4.63;2.63;;;;;;;27.82;38.31;102030.03;4880831;29;20047;-80
2022/08/10 09:51:44;;;;;;;5.30;3.20;;;;;;;27.63;36.66;102039.47;4861780;29;20079;-80
2022/08/10 09:54:50;;;;;;;3.55;2.70;;;;;;;27.61;36.14;102044.13;4856409;29;20594;-80
2022/08/10 09:57:41;;;;;;;62.60;10.77;;;;;;;28.20;34.54;102035.44;4875632;29;20446;-81
2022/08/10 10:00:19;;;;;;;3.03;2.47;;;;;;;28.17;35.28;102025.66;4894066;29;20598;-81
2022/08/10 10:03:05;;;;;;;;;;;;;;;27.65;36.37;102033.91;4858101;29;20553;-81
2022/08/10 10:05:45;;;;;;;157.23;23.30;;;;;;;26.83;39.13;102033.22;4876636;29;19930;-81
2022/08/10 10:08:20;;;;;;;14.23;4.95;;;;;;;26.45;39.96;102018.63;4859719;29;20049;-80
2022/08/10 10:10:56;;;;;;;8.00;3.10;;;;;;;26.53;40.00;102018.97;4889415;29;20116;-82
2022/08/10 10:13:45;;;;;;;3.15;2.75;;;;;;;26.37;39.83;102016.38;4862622;29;20051;-81
2022/08/10 10:16:42;;;;;;;6.72;2.97;;;;;;;25.96;41.31;102016.34;4893351;29;21593;-81
2022/08/10 10:19:30;;;;;;;5.53;3.47;;;;;;;25.96;41.78;102019.03;4872110;29;20071;-81
2022/08/10 10:22:26;;;;;;;3.95;3.53;;;;;;;25.70;42.53;102016.09;4853857;29;20404;-80
2022/08/10 10:25:01;;;;;;;4.45;3.60;;;;;;;25.57;43.55;102017.84;4872679;29;20050;-81
2022/08/10 10:27:52;;;;;;;5.28;3.22;;;;;;;25.60;43.56;102011.38;4866272;29;20047;-81
2022/08/10 10:30:22;;;;;;;4.43;3.35;;;;;;;25.67;43.25;101999.19;4857213;29;20052;-81
2022/08/10 10:32:59;;;;;;;7.57;3.53;;;;;;;25.48;42.46;102013.03;4861677;29;20079;-81
2022/08/10 10:35:34;;;;;;;4.63;3.40;;;;;;;25.52;43.44;102015.41;4845483;29;20052;-81
2022/08/10 10:38:02;;;;;;;75.80;17.35;;;;;;;25.52;43.53;102006.44;4878789;29;20048;-81
2022/08/10 10:40:51;;;;;;;4.43;3.15;;;;;;;25.64;43.59;101997.53;4867549;29;20223;-81
2022/08/10 10:43:53;;;;;;;4.45;3.55;;;;;;;25.69;43.33;101992.72;4862014;29;20076;-81
2022/08/10 10:47:04;;;;;;;4.88;3.45;;;;;;;26.30;42.51;101996.94;4891145;29;20037;-80
2022/08/10 10:49:48;;;;;;;3.85;3.20;;;;;;;26.46;41.77;101993.25;4884309;29;20135;-80
2022/08/10 10:52:36;;;;;;;3.78;3.40;;;;;;;26.23;42.62;101992.88;4884634;29;20041;-78
2022/08/10 10:55:25;;;;;;;8.15;3.80;;;;;;;25.73;43.84;101994.31;4892771;29;20033;-80
2022/08/10 10:58:26;;;;;;;5.07;3.80;;;;;;;25.50;44.15;101993.00;4866623;29;20049;-80
2022/08/10 11:01:12;;;;;;;6.47;3.92;;;;;;;25.45;45.26;101999.66;4843617;29;20124;-80
2022/08/10 11:04:01;;;;;;;7.70;3.40;;;;;;;25.39;44.56;101989.19;4861522;29;20115;-80
2022/08/10 11:06:55;;;;;;;4.32;3.85;;;;;;;25.77;43.74;101985.00;4883783;29;20568;-82
2022/08/10 11:09:35;;;;;;;4.18;3.78;;;;;;;26.65;42.29;101983.81;4879076;29;20044;-81
2022/08/10 11:12:33;;;;;;;4.22;3.63;;;;;;;27.11;40.17;101975.25;4877203;29;21029;-80
2022/08/10 11:15:22;;;;;;;3.65;3.35;;;;;;;26.85;40.42;101987.88;4876026;29;20067;-81
2022/08/10 11:18:00;;;;;;;;;;;;;;;26.62;40.90;101983.13;4878519;29;20044;-81
2022/08/10 11:20:43;;;;;;;5.78;3.63;;;;;;;26.90;40.55;101974.84;4878112;29;19931;-80
2022/08/10 11:23:18;;;;;;;19.13;5.25;;;;;;;27.70;39.32;101972.91;4864353;29;20045;-80
2022/08/10 11:25:49;;;;;;;4.60;3.53;;;;;;;28.52;37.26;101965.13;4857186;29;20048;-81
2022/08/10 11:28:40;;;;;;;3.30;3.00;;;;;;;28.94;35.32;101968.28;4873383;29;20049;-81
2022/08/10 11:31:26;;;;;;;5.50;3.47;;;;;;;28.44;34.24;101972.97;4886322;29;20051;-80
2022/08/10 11:33:59;;;;;;;3.97;3.25;;;;;;;28.57;34.36;101965.63;4864727;29;20044;-81
2022/08/10 11:36:48;;;;;;;4.77;3.37;;;;;;;27.60;36.27;101966.38;4844559;29;20044;-80
2022/08/10 11:39:33;;;;;;;5.95;3.17;;;;;;;27.73;35.67;101963.66;4876788;29;20052;-81
2022/08/10 11:42:06;;;;;;;5.35;2.95;;;;;;;27.35;36.49;101958.25;4860799;29;20051;-80
2022/08/10 11:44:59;;;;;;;11.23;3.75;;;;;;;26.74;36.84;101965.16;4867409;29;20056;-80
2022/08/10 11:47:32;;;;;;;4.82;3.28;;;;;;;26.59;37.62;101957.09;4853637;29;20044;-81
2022/08/10 11:50:05;;;;;;;4.53;2.97;;;;;;;27.01;36.55;101955.16;4873211;29;20053;-80
2022/08/10 11:52:47;;;;;;;4.10;2.90;;;;;;;27.65;35.58;101949.75;4862260;29;20055;-80
2022/08/10 11:55:28;;;;;;;3.30;3.00;;;;;;;27.93;33.98;101944.09;4866578;29;20037;-80
2022/08/10 11:57:57;;;;;;;3.67;3.13;;;;;;;28.47;33.90;101946.41;4890409;29;20032;-80
2022/08/10 12:00:25;;;;;;;5.03;2.80;;;;;;;28.73;31.59;101946.28;4867091;29;20044;-81
2022/08/10 12:02:58;;;;;;;;;;;;;;;28.37;31.94;101948.09;4862083;29;20135;-80
2022/08/10 12:05:27;;;;;;;3.25;2.75;;;;;;;28.47;32.04;101945.56;4873491;29;19927;-80
2022/08/10 12:08:20;;;;;;;3.15;2.78;;;;;;;28.72;31.44;101944.56;4869603;29;20101;-80
2022/08/10 12:11:13;;;;;;;3.38;2.85;;;;;;;29.10;31.40;101938.91;4882663;29;20092;-81
2022/08/10 12:13:56;;;;;;;3.47;2.90;;;;;;;29.52;30.86;101926.50;4879531;29;20055;-80